createdAt,value
2019-03-06T13:28:39.528Z,8.00
2019-03-06T13:31:31.204Z,5.80
2019-03-06T13:34:28.977Z,10.90
2019-03-06T13:37:20.683Z,9.97
2019-03-06T13:40:18.439Z,11.13
2019-03-06T13:43:05.803Z,8.93
2019-03-06T13:45:56.883Z,6.30
2019-03-06T13:48:49.631Z,9.60
2019-03-06T13:51:42.586Z,8.93
2019-03-06T13:54:33.930Z,8.43
2019-03-06T13:57:25.514Z,6.93
2019-03-06T14:00:18.936Z,6.83
2019-03-06T14:03:10.599Z,10.57
2019-03-06T14:06:02.254Z,8.40
2019-03-06T14:08:53.606Z,8.80
2019-03-06T14:11:45.180Z,8.60
2019-03-06T14:14:36.848Z,5.23
2019-03-06T14:17:28.342Z,7.80
2019-03-06T14:20:21.614Z,6.70
2019-03-06T14:23:13.277Z,15.37
2019-03-06T14:26:07.572Z,8.57
2019-03-06T14:28:59.029Z,13.60
2019-03-06T14:31:50.715Z,10.33
2019-03-06T14:34:42.142Z,11.33
2019-03-06T14:37:34.120Z,13.57
2019-03-06T14:40:29.880Z,8.90
2019-03-06T14:43:21.447Z,5.43
2019-03-06T14:46:16.439Z,11.23
2019-03-06T14:49:06.408Z,9.70
2019-03-06T14:52:06.671Z,14.20
2019-03-06T14:54:51.034Z,8.70
2019-03-06T14:57:43.306Z,8.43
2019-03-06T15:00:36.157Z,9.23
2019-03-06T15:03:27.756Z,11.07
2019-03-06T15:06:19.180Z,9.67
2019-03-06T15:09:24.903Z,11.63
2019-03-06T15:12:17.644Z,9.60
2019-03-06T15:15:12.001Z,8.20
2019-03-06T15:18:10.419Z,11.97
2019-03-06T15:20:56.968Z,8.47
2019-03-06T15:23:48.609Z,11.20
2019-03-06T15:26:40.250Z,7.60
2019-03-06T15:29:32.089Z,9.20
2019-03-06T15:32:23.803Z,6.20
2019-03-06T15:35:16.416Z,10.27
2019-03-06T15:38:10.297Z,7.47
2019-03-06T15:41:02.038Z,12.67
2019-03-06T15:43:53.489Z,7.30
2019-03-06T15:46:44.959Z,10.17
2019-03-06T15:49:36.625Z,8.57
2019-03-06T15:52:28.155Z,9.53
2019-03-06T15:55:23.122Z,13.97
2019-03-06T15:58:14.931Z,8.70
2019-03-06T16:01:06.761Z,9.50
2019-03-06T16:03:58.439Z,11.80
2019-03-06T16:06:53.983Z,8.60
2019-03-06T16:09:43.374Z,10.33
2019-03-06T16:12:34.994Z,9.07
2019-03-06T16:15:28.572Z,10.17
2019-03-06T16:18:19.978Z,9.77
2019-03-06T16:21:11.794Z,8.73
2019-03-06T16:24:03.541Z,11.73
2019-03-06T16:26:55.918Z,10.67
2019-03-06T16:29:47.942Z,6.90
2019-03-06T16:32:39.639Z,6.70
2019-03-06T16:35:31.768Z,7.60
2019-03-06T16:38:24.510Z,11.63
2019-03-06T16:41:16.461Z,13.63
2019-03-06T16:44:09.423Z,8.73
2019-03-06T16:47:06.770Z,8.37
2019-03-06T16:49:55.022Z,7.77
2019-03-06T16:52:47.848Z,9.30
2019-03-06T16:55:40.219Z,11.83
2019-03-06T16:58:34.318Z,12.03
2019-03-06T17:01:27.544Z,10.10
2019-03-06T17:04:19.632Z,11.03
2019-03-06T17:07:11.732Z,9.90
2019-03-06T17:10:03.827Z,9.20
2019-03-06T17:12:56.911Z,10.50
2019-03-06T17:15:49.349Z,13.47
2019-03-06T17:18:41.411Z,11.90
2019-03-06T17:21:33.246Z,9.03
2019-03-06T17:24:25.795Z,11.03
2019-03-06T17:27:17.732Z,13.53
2019-03-06T17:30:14.416Z,9.67
2019-03-06T17:33:08.786Z,13.73
2019-03-06T17:36:01.473Z,14.40
2019-03-06T17:38:52.867Z,12.17
2019-03-06T17:41:44.177Z,7.93
2019-03-06T17:44:36.539Z,10.87
2019-03-06T17:47:29.217Z,8.50
2019-03-06T17:50:21.072Z,12.77
2019-03-06T17:53:12.442Z,11.03
2019-03-06T17:56:04.028Z,12.50
2019-03-06T17:58:55.504Z,12.23
2019-03-06T18:01:47.026Z,12.57
2019-03-06T18:04:38.366Z,9.23
2019-03-06T18:07:30.578Z,7.40
2019-03-06T18:10:21.976Z,10.20
2019-03-06T18:13:13.904Z,17.63
2019-03-06T18:16:05.861Z,13.43
2019-03-06T18:18:57.473Z,8.83
2019-03-06T18:21:49.817Z,12.80
2019-03-06T18:24:41.756Z,10.60
2019-03-06T18:27:33.368Z,11.70
2019-03-06T18:30:25.059Z,5.80
2019-03-06T18:33:17.688Z,9.33
2019-03-06T18:36:09.679Z,10.10
2019-03-06T18:39:01.303Z,11.57
2019-03-06T18:41:54.351Z,10.60
2019-03-06T18:44:45.919Z,13.33
2019-03-06T18:47:37.720Z,9.67
2019-03-06T18:50:29.435Z,11.63
2019-03-06T18:53:21.115Z,9.97
2019-03-06T18:56:13.468Z,11.33
2019-03-06T18:59:04.957Z,11.10
2019-03-06T19:01:56.357Z,11.53
2019-03-06T19:04:47.962Z,8.87
2019-03-06T19:07:39.322Z,8.80
2019-03-06T19:10:30.931Z,9.80
2019-03-06T19:13:22.739Z,12.77
2019-03-06T19:16:14.193Z,11.63
2019-03-06T19:19:06.526Z,8.07
2019-03-06T19:21:58.142Z,8.73
2019-03-06T19:24:49.734Z,6.33
2019-03-06T19:27:41.325Z,12.43
2019-03-06T19:30:32.928Z,8.73
2019-03-06T19:33:24.433Z,8.07
2019-03-06T19:36:15.967Z,7.37
2019-03-06T19:39:08.379Z,8.53
2019-03-06T19:42:00.775Z,5.77
2019-03-06T19:44:52.552Z,8.77
2019-03-06T19:47:44.775Z,8.23
2019-03-06T19:50:36.728Z,7.00
2019-03-06T19:53:28.916Z,9.40
2019-03-06T19:56:20.714Z,7.43
2019-03-06T19:59:12.607Z,7.07
2019-03-06T20:02:04.654Z,7.60
2019-03-06T20:04:56.938Z,6.87
2019-03-06T20:07:49.037Z,5.30
2019-03-06T20:10:41.388Z,8.47
2019-03-06T20:13:33.579Z,6.40
2019-03-06T20:16:25.699Z,6.53
2019-03-06T20:19:18.801Z,6.80
2019-03-06T20:22:10.700Z,6.57
2019-03-06T20:25:02.286Z,8.40
2019-03-06T20:27:53.661Z,8.40
2019-03-06T20:30:46.166Z,7.83
2019-03-06T20:33:37.490Z,7.60
2019-03-06T20:36:28.922Z,10.30
2019-03-06T20:39:21.153Z,8.83
2019-03-06T20:42:12.585Z,9.17
2019-03-06T20:45:04.752Z,8.20
2019-03-06T20:47:56.150Z,9.23
2019-03-06T20:50:47.663Z,8.30
2019-03-06T20:53:39.316Z,7.33
2019-03-06T20:56:31.051Z,10.27
2019-03-06T20:59:22.822Z,10.37
2019-03-06T21:02:14.600Z,12.07
2019-03-06T21:05:07.017Z,8.87
2019-03-06T21:08:00.002Z,11.07
2019-03-06T21:10:51.583Z,9.63
2019-03-06T21:13:43.029Z,8.43
2019-03-06T21:16:34.738Z,8.67
2019-03-06T21:19:26.250Z,11.10
2019-03-06T21:22:17.635Z,10.87
2019-03-06T21:25:10.879Z,12.83
2019-03-06T21:28:02.973Z,13.20
2019-03-06T21:30:54.320Z,12.23
2019-03-06T21:33:46.027Z,9.87
2019-03-06T21:36:37.402Z,10.37
2019-03-06T21:39:28.857Z,10.83
2019-03-06T21:42:20.504Z,10.77
2019-03-06T21:45:12.061Z,9.40
2019-03-06T21:48:04.444Z,10.87
2019-03-06T21:50:56.594Z,11.90
2019-03-06T21:53:48.044Z,10.07
2019-03-06T21:56:39.915Z,8.97
2019-03-06T21:59:31.558Z,8.03
2019-03-06T22:02:23.084Z,8.67
2019-03-06T22:05:14.861Z,10.13
2019-03-06T22:08:06.254Z,7.00
2019-03-06T22:10:57.704Z,10.53
2019-03-06T22:13:49.395Z,12.37
2019-03-06T22:16:41.564Z,10.73
2019-03-06T22:19:34.050Z,11.47
2019-03-06T22:22:25.409Z,11.87
2019-03-06T22:25:16.984Z,12.73
2019-03-06T22:28:08.489Z,13.87
2019-03-06T22:30:59.887Z,14.37
2019-03-06T22:33:51.426Z,16.30
2019-03-06T22:36:42.975Z,16.70
2019-03-06T22:39:34.366Z,15.20
2019-03-06T22:42:25.682Z,18.03
2019-03-06T22:45:17.148Z,18.23
2019-03-06T22:48:08.521Z,18.13
2019-03-06T22:51:00.181Z,19.13
2019-03-06T22:53:51.513Z,19.10
2019-03-06T22:56:43.120Z,17.53
2019-03-06T22:59:34.753Z,22.53
2019-03-06T23:02:26.868Z,22.47
2019-03-06T23:05:18.548Z,22.23
2019-03-06T23:08:10.006Z,23.37
2019-03-06T23:11:01.514Z,24.43
2019-03-06T23:13:53.205Z,23.73
2019-03-06T23:16:44.587Z,21.53
2019-03-06T23:19:36.109Z,18.20
2019-03-06T23:22:27.737Z,21.23
2019-03-06T23:25:19.759Z,26.37
2019-03-06T23:28:11.215Z,20.97
2019-03-06T23:31:02.657Z,20.20
2019-03-06T23:33:54.641Z,27.77
2019-03-06T23:36:46.182Z,28.07
2019-03-06T23:39:37.700Z,26.00
2019-03-06T23:42:29.706Z,25.67
2019-03-06T23:45:21.493Z,23.90
2019-03-06T23:48:14.436Z,24.07
2019-03-06T23:51:11.696Z,21.87
2019-03-06T23:54:03.256Z,23.37
2019-03-06T23:56:54.574Z,24.47
2019-03-06T23:59:46.244Z,23.20
